sensor_id;sensor_type;location;lat;lon;timestamp;pressure;altitude;pressure_sealevel;temperature;humidity
15558;BME280;7880;50.110;9.372;2023-05-01T00:02:35;9.857069201214472;;;9.625;100.0
15558;BME280;7880;50.110;9.372;2023-05-01T00:07:46;9.96295680142939;;;9.687;100.0
15558;BME280;7880;50.110;9.372;2023-05-01T00:12:42;9.852026937738993;;;9.625;100.0
15558;BME280;7880;50.110;9.372;2023-05-01T00:17:46;9.736054958129534;;;9.5;100.0
15558;BME280;7880;50.110;9.372;2023-05-01T00:22:10;9.736054958129534;;;9.5;100.0
15558;BME280;7880;50.110;9.372;2023-05-01T00:27:12;9.630167632945813;;;9.375;100.0
15558;BME280;7880;50.110;9.372;2023-05-01T00:32:20;9.433520083833718;;;9.187;100.0
15558;BME280;7880;50.110;9.372;2023-05-01T00:37:27;9.458731283340603;;;9.187;100.0
15558;BME280;7880;50.110;9.372;2023-05-01T00:42:26;9.292337501054863;;;9.062;100.0
15558;BME280;7880;50.110;9.372;2023-05-01T00:47:34;9.201577389758313;;;8.937;100.0
15558;BME280;7880;50.110;9.372;2023-05-01T00:52:39;9.211661841912427;;;8.875;100.0
15558;BME280;7880;50.110;9.372;2023-05-01T00:57:40;9.100732932245592;;;8.812;100.0
15558;BME280;7880;50.110;9.372;2023-05-01T01:02:46;8.909128783695632;;;8.625;100.0
15558;BME280;7880;50.110;9.372;2023-05-01T01:08:03;8.762904847809114;;;8.5;100.0
15558;BME280;7880;50.110;9.372;2023-05-01T01:12:59;8.752820447459817;;;8.437;100.0
15558;BME280;7880;50.110;9.372;2023-05-01T01:18:08;8.616681156685809;;;8.25;100.0
15558;BME280;7880;50.110;9.372;2023-05-01T01:23:30;8.581385819637216;;;8.25;100.0
15558;BME280;7880;50.110;9.372;2023-05-01T01:28:23;8.561217062012293;;;8.25;100.0
15558;BME280;7880;50.110;9.372;2023-05-01T01:34:00;8.662060896703043;;;8.312;100.0
15558;BME280;7880;50.110;9.372;2023-05-01T01:38:45;8.571301440242678;;;8.25;100.0
15558;BME280;7880;50.110;9.372;2023-05-01T01:43:48;8.5360061215295;;;8.25;100.0
15558;BME280;7880;50.110;9.372;2023-05-01T01:48:49;8.172969385335454;;;8.062;100.0
15558;BME280;7880;50.110;9.372;2023-05-01T01:54:01;8.324234508728841;;;7.937;100.0
15558;BME280;7880;50.110;9.372;2023-05-01T01:59:00;8.12758989939466;;;7.875;100.0
15558;BME280;7880;50.110;9.372;2023-05-01T02:04:04;8.15280072200694;;;7.812;100.0
15558;BME280;7880;50.110;9.372;2023-05-01T02:09:11;7.981367271725321;;;7.625;100.0
15558;BME280;7880;50.110;9.372;2023-05-01T02:14:15;7.930945732729742;;;7.625;100.0
15558;BME280;7880;50.110;9.372;2023-05-01T02:19:18;7.96119865263463;;;7.687;100.0
15558;BME280;7880;50.110;9.372;2023-05-01T02:24:24;7.941030038200552;;;7.562;100.0
15558;BME280;7880;50.110;9.372;2023-05-01T02:29:27;7.840187035879353;;;7.5;100.0
15558;BME280;7880;50.110;9.372;2023-05-01T02:34:36;7.5578272487095095;;;7.25;100.0
15558;BME280;7880;50.110;9.372;2023-05-01T02:39:40;7.6788384743093046;;;7.375;100.0
15558;BME280;7880;50.110;9.372;2023-05-01T02:44:44;7.688922750676284;;;7.312;100.0
15558;BME280;7880;50.110;9.372;2023-05-01T02:49:48;7.58808003939339;;;7.312;100.0
15558;BME280;7880;50.110;9.372;2023-05-01T02:54:49;7.62337497510016;;;7.312;100.0
15558;BME280;7880;50.110;9.372;2023-05-01T03:00:10;7.577995774667943;;;7.25;100.0
15558;BME280;7880;50.110;9.372;2023-05-01T03:04:59;7.456984688766534;;;7.187;100.0
15558;BME280;7880;50.110;9.372;2023-05-01T03:10:09;7.492279571504332;;;7.25;100.0
15558;BME280;7880;50.110;9.372;2023-05-01T03:15:13;7.436816190747777;;;7.187;100.0
15558;BME280;7880;50.110;9.372;2023-05-01T03:20:15;7.613290706300177;;;7.312;100.0
15558;BME280;7880;50.110;9.372;2023-05-01T03:25:18;7.5830379068851474;;;7.312;100.0
15558;BME280;7880;50.110;9.372;2023-05-01T03:30:32;7.608248572336743;;;7.25;100.0
15558;BME280;7880;50.110;9.372;2023-05-01T03:35:26;7.653627788485028;;;7.312;100.0
15558;BME280;7880;50.110;9.372;2023-05-01T03:40:31;7.613290706300177;;;7.375;100.0
15558;BME280;7880;50.110;9.372;2023-05-01T03:45:34;7.56286937976256;;;7.312;100.0
15558;BME280;7880;50.110;9.372;2023-05-01T03:50:38;7.709091306902701;;;7.437;100.0
15558;BME280;7880;50.110;9.372;2023-05-01T03:55:50;7.58808003939339;;;7.25;100.0
15558;BME280;7880;50.110;9.372;2023-05-01T04:00:45;7.467068939522141;;;7.187;100.0
15558;BME280;7880;50.110;9.372;2023-05-01T04:05:52;7.497321698773885;;;7.25;100.0
15558;BME280;7880;50.110;9.372;2023-05-01T04:10:55;7.59816430528299;;;7.312;100.0
15558;BME280;7880;50.110;9.372;2023-05-01T04:15:59;7.704049167409539;;;7.437;100.0
15558;BME280;7880;50.110;9.372;2023-05-01T04:21:03;7.5830379068851474;;;7.437;100.0
15558;BME280;7880;50.110;9.372;2023-05-01T04:26:06;7.59816430528299;;;7.437;100.0
15558;BME280;7880;50.110;9.372;2023-05-01T04:31:10;7.7746391467982905;;;7.562;100.0
15558;BME280;7880;50.110;9.372;2023-05-01T04:36:15;7.76959700352163;;;7.625;100.0
15558;BME280;7880;50.110;9.372;2023-05-01T04:41:26;7.779681290365988;;;7.625;100.0
15558;BME280;7880;50.110;9.372;2023-05-01T04:46:23;7.764554860536009;;;7.625;100.0
15558;BME280;7880;50.110;9.372;2023-05-01T04:51:28;7.930945732729742;;;7.75;100.0
15558;BME280;7880;50.110;9.372;2023-05-01T04:56:31;7.956156498589553;;;7.812;100.0
15558;BME280;7880;50.110;9.372;2023-05-01T05:01:47;8.067083954811096;;;7.937;100.0
15558;BME280;7880;50.110;9.372;2023-05-01T05:06:43;8.087252598349005;;;7.937;100.0
15558;BME280;7880;50.110;9.372;2023-05-01T05:11:45;8.15280072200694;;;8.0;100.0
15558;BME280;7880;50.110;9.372;2023-05-01T05:16:48;8.324234508728841;;;8.187;100.0
15558;BME280;7880;50.110;9.372;2023-05-01T05:21:53;8.35952974187676;;;8.312;100.0
15558;BME280;7880;50.110;9.372;2023-05-01T05:26:57;8.414993708493421;;;8.375;100.0
15558;BME280;7880;50.110;9.372;2023-05-01T05:32:07;8.520879560732283;;;8.375;100.0
15558;BME280;7880;50.110;9.372;2023-05-01T05:37:06;8.596512390911812;;;8.5;100.0
15558;BME280;7880;50.110;9.372;2023-05-01T05:42:11;8.757862647488945;;;8.687;100.0
15558;BME280;7880;50.110;9.372;2023-05-01T05:47:15;8.883917742804623;;;8.812;100.0
15558;BME280;7880;50.110;9.372;2023-05-01T05:52:19;8.97971973689855;;;8.937;100.0
15558;BME280;7880;50.110;9.372;2023-05-01T05:57:24;9.1360284791328;;;9.125;100.0
15558;BME280;7880;50.110;9.372;2023-05-01T06:02:28;9.236872977390885;;;9.187;100.0
15558;BME280;7880;50.110;9.372;2023-05-01T06:07:33;9.277210809290409;;;9.312;100.0
15558;BME280;7880;50.110;9.372;2023-05-01T06:12:39;9.383097706647822;;;9.375;100.0
15558;BME280;7880;50.110;9.372;2023-05-01T06:17:40;9.504111460788408;;;9.5;100.0
15558;BME280;7880;50.110;9.372;2023-05-01T06:22:53;9.64025213457644;;;9.625;100.0
15558;BME280;7880;50.110;9.372;2023-05-01T06:27:52;9.725970445439453;;;9.75;100.0
15558;BME280;7880;50.110;9.372;2023-05-01T06:32:53;9.902449585590512;;;9.875;100.0
15558;BME280;7880;50.110;9.372;2023-05-01T06:37:57;10.058759978885064;;;10.062;100.0
15558;BME280;7880;50.110;9.372;2023-05-01T06:43:02;10.119267302990192;;;10.125;100.0
15558;BME280;7880;50.110;9.372;2023-05-01T06:48:14;10.275578084238806;;;10.312;100.0
15558;BME280;7880;50.110;9.372;2023-05-01T06:53:14;10.431889145175228;;;10.437;100.0
15558;BME280;7880;50.110;9.372;2023-05-01T06:58:16;10.562988960329676;;;10.562;100.0
15558;BME280;7880;50.110;9.372;2023-05-01T07:03:20;10.64366586744436;;;10.625;100.0
15558;BME280;7880;50.110;9.372;2023-05-01T07:08:24;10.764681367814774;;;10.75;100.0
15558;BME280;7880;50.110;9.372;2023-05-01T07:13:27;10.764681367814774;;;10.812;100.0
15558;BME280;7880;50.110;9.372;2023-05-01T07:18:34;10.981501225219109;;;10.937;100.0
15558;BME280;7880;50.110;9.372;2023-05-01T07:23:36;11.309253194002668;;;11.25;100.0
15558;BME280;7880;50.110;9.372;2023-05-01T07:28:42;11.53615912348032;;;11.562;100.0
15558;BME280;7880;50.110;9.372;2023-05-01T07:33:52;11.702557179663563;;;11.687;100.0
15558;BME280;7880;50.110;9.372;2023-05-01T07:39:09;12.000057524535805;;;11.937;100.0
15558;BME280;7880;50.110;9.372;2023-05-01T07:43:57;12.136202088050776;;;12.25;99.40443420437512
15558;BME280;7880;50.110;9.372;2023-05-01T07:49:09;12.126117298292229;;;12.187;97.19067521226197
15558;BME280;7880;50.110;9.372;2023-05-01T07:54:06;12.317728502774845;;;12.312;97.19102775377944
15558;BME280;7880;50.110;9.372;2023-05-01T07:59:10;12.590018832084024;;;12.625;98.27854733906943
15558;BME280;7880;50.110;9.372;2023-05-01T08:04:18;12.958116367110051;;;12.937;100.0
15558;BME280;7880;50.110;9.372;2023-05-01T08:09:28;13.02871059216559;;;13.125;100.0
15558;BME280;7880;50.110;9.372;2023-05-01T08:14:25;13.124517131695757;;;13.125;99.88248978232406
15558;BME280;7880;50.110;9.372;2023-05-01T08:19:32;13.19511149121099;;;13.187;100.0
15558;BME280;7880;50.110;9.372;2023-05-01T08:24:35;13.210238861385733;;;13.25;100.0
15558;BME280;7880;50.110;9.372;2023-05-01T08:29:39;13.164856758719543;;;13.187;99.12135798749362
15558;BME280;7880;50.110;9.372;2023-05-01T08:34:43;13.280833290168085;;;13.312;96.56715338570218
15558;BME280;7880;50.110;9.372;2023-05-01T08:39:51;13.290918213222175;;;13.25;98.87653909538228
15558;BME280;7880;50.110;9.372;2023-05-01T08:44:55;13.295960675185778;;;13.312;93.13309686622787
15558;BME280;7880;50.110;9.372;2023-05-01T08:49:58;13.255620987626026;;;13.25;92.5119187940814
15558;BME280;7880;50.110;9.372;2023-05-01T08:55:03;13.306045599986101;;;13.312;91.83370738516169
15558;BME280;7880;50.110;9.372;2023-05-01T09:00:12;13.406894912017743;;;13.375;95.49523518195289
15558;BME280;7880;50.110;9.372;2023-05-01T09:05:15;13.381682573095896;;;13.375;91.92751133816367
15558;BME280;7880;50.110;9.372;2023-05-01T09:10:18;13.396809975575888;;;13.312;96.44095279297167
15558;BME280;7880;50.110;9.372;2023-05-01T09:15:23;13.568254053412238;;;13.437;92.6044289488779
15558;BME280;7880;50.110;9.372;2023-05-01T09:20:26;13.558169098343933;;;13.5;90.93778224761955
15558;BME280;7880;50.110;9.372;2023-05-01T09:25:30;13.628763808269287;;;13.562;90.11338426995488
15558;BME280;7880;50.110;9.372;2023-05-01T09:30:38;13.719528519135201;;;13.625;93.33517305640616
15558;BME280;7880;50.110;9.372;2023-05-01T09:35:55;13.699358575238147;;;13.687;94.08600318686582
15558;BME280;7880;50.110;9.372;2023-05-01T09:40:52;13.800208341289544;;;13.687;93.71449583182444
15558;BME280;7880;50.110;9.372;2023-05-01T09:45:58;13.98173821354867;;;13.875;95.2297226037018
15558;BME280;7880;50.110;9.372;2023-05-01T09:51:00;13.865760751650669;;;13.812;92.09921487806422
15558;BME280;7880;50.110;9.372;2023-05-01T09:56:00;13.946440708846785;;;13.875;94.46088471988948
15558;BME280;7880;50.110;9.372;2023-05-01T10:01:04;13.976695712003856;;;13.875;93.7953864855935
15558;BME280;7880;50.110;9.372;2023-05-01T10:06:09;13.911143218405778;;;13.875;93.13318188298048
15558;BME280;7880;50.110;9.372;2023-05-01T10:11:14;13.911143218405778;;;13.875;93.67090591819296
15558;BME280;7880;50.110;9.372;2023-05-01T10:16:28;14.027120740548707;;;13.937;92.76307397993692
15558;BME280;7880;50.110;9.372;2023-05-01T10:21:23;14.04729076011572;;;14.0;89.91620831767021
15558;BME280;7880;50.110;9.372;2023-05-01T10:26:28;14.006950725638308;;;13.937;89.47317868111223
15558;BME280;7880;50.110;9.372;2023-05-01T10:30:34;14.112843355868245;;;14.062;90.75824339829937
15558;BME280;7880;50.110;9.372;2023-05-01T10:35:44;14.027120740548707;;;14.062;87.39484015244255
15558;BME280;7880;50.110;9.372;2023-05-01T10:40:49;14.077545798197388;;;14.062;87.90782210783513
15558;BME280;7880;50.110;9.372;2023-05-01T10:45:49;14.193523541238392;;;14.125;91.20632054550336
15558;BME280;7880;50.110;9.372;2023-05-01T10:51:11;14.213693599222461;;;14.187;85.66656132278281
15558;BME280;7880;50.110;9.372;2023-05-01T10:56:39;14.198566055297851;;;14.187;88.82007732363014
15558;BME280;7880;50.110;9.372;2023-05-01T11:01:28;14.501117431465536;;;14.375;93.52032501789753
15558;BME280;7880;50.110;9.372;2023-05-01T11:06:28;14.425479489198187;;;14.375;91.0607464631434
15558;BME280;7880;50.110;9.372;2023-05-01T11:11:46;14.344799089623848;;;14.25;88.40933955806423
15558;BME280;7880;50.110;9.372;2023-05-01T11:16:43;14.28428883883753;;;14.25;85.15080500248858
15558;BME280;7880;50.110;9.372;2023-05-01T11:21:38;14.485989837773378;;;14.375;84.70200045627
15558;BME280;7880;50.110;9.372;2023-05-01T11:26:44;14.586840511864285;;;14.5;86.57589493378423
15558;BME280;7880;50.110;9.372;2023-05-01T11:31:47;14.607010660652303;;;14.5;84.65695222515409
15558;BME280;7880;50.110;9.372;2023-05-01T11:36:52;14.712904018186965;;;14.625;90.92177652293822
15558;BME280;7880;50.110;9.372;2023-05-01T11:42:05;14.607010660652303;;;14.562;86.38240069542235
15558;BME280;7880;50.110;9.372;2023-05-01T11:47:06;14.521287560462952;;;14.5;85.12926372010094
15558;BME280;7880;50.110;9.372;2023-05-01T11:52:04;14.576755439216504;;;14.437;85.3259044474971
15558;BME280;7880;50.110;9.372;2023-05-01T11:57:07;14.375054230733076;;;14.312;81.86845162596381
15558;BME280;7880;50.110;9.372;2023-05-01T12:02:17;14.425479489198187;;;14.25;86.63167537139597
15558;BME280;7880;50.110;9.372;2023-05-01T12:07:20;14.511202495382168;;;14.312;87.44535185391656
15558;BME280;7880;50.110;9.372;2023-05-01T12:12:22;14.521287560462952;;;14.375;88.20270830074463
15558;BME280;7880;50.110;9.372;2023-05-01T12:17:35;14.501117431465536;;;14.375;88.2003509770871
15558;BME280;7880;50.110;9.372;2023-05-01T12:22:30;14.430522016645408;;;14.312;89.51343397433594
15558;BME280;7880;50.110;9.372;2023-05-01T12:27:41;14.425479489198187;;;14.312;86.90139402332832
15558;BME280;7880;50.110;9.372;2023-05-01T12:32:39;14.546500228258083;;;14.375;90.01358124909068
15558;BME280;7880;50.110;9.372;2023-05-01T12:37:47;14.66247859383002;;;14.5;92.30520675455115
15558;BME280;7880;50.110;9.372;2023-05-01T12:42:53;14.707861474441597;;;14.562;89.7370156825626
15558;BME280;7880;50.110;9.372;2023-05-01T12:47:56;14.778457113361219;;;14.625;90.72894718954764
15558;BME280;7880;50.110;9.372;2023-05-01T12:53:01;15.040669985912974;;;14.812;96.4742436588093
15558;BME280;7880;50.110;9.372;2023-05-01T12:58:04;14.783499661181121;;;14.687;88.75177795018988
15558;BME280;7880;50.110;9.372;2023-05-01T13:03:06;14.818797504069517;;;14.687;88.79297179466366
15558;BME280;7880;50.110;9.372;2023-05-01T13:08:12;15.070925368001918;;;14.875;89.25672186004456
15558;BME280;7880;50.110;9.372;2023-05-01T13:13:23;15.070925368001918;;;15.0;86.10092046596563
15558;BME280;7880;50.110;9.372;2023-05-01T13:18:24;15.257500455738045;;;15.187;85.83027129540271
15558;BME280;7880;50.110;9.372;2023-05-01T13:23:26;15.23733015677426;;;15.125;87.00970737501686
15558;BME280;7880;50.110;9.372;2023-05-01T13:28:34;15.388607512507587;;;15.25;84.61459458643375
15558;BME280;7880;50.110;9.372;2023-05-01T13:33:38;15.459203701489605;;;15.312;84.29864048562985
15558;BME280;7880;50.110;9.372;2023-05-01T13:38:42;15.196989572816529;;;15.125;83.2417139441543
15558;BME280;7880;50.110;9.372;2023-05-01T13:43:46;15.519714766019025;;;15.375;83.98147378830559
15558;BME280;7880;50.110;9.372;2023-05-01T13:48:50;15.76680204780423;;;15.562;87.81239365031281
15558;BME280;7880;50.110;9.372;2023-05-01T13:53:54;16.01389002837241;;;15.812;83.96510358099614
15558;BME280;7880;50.110;9.372;2023-05-01T13:59:03;16.311405054671923;;;16.187;78.93216082344478
15558;BME280;7880;50.110;9.372;2023-05-01T14:04:07;16.225680282176473;;;16.187;80.51520881960954
15558;BME280;7880;50.110;9.372;2023-05-01T14:09:07;15.953378621581942;;;15.937;75.1510231144901
15558;BME280;7880;50.110;9.372;2023-05-01T14:14:11;16.094571969285607;;;16.062;77.78326343727554
15558;BME280;7880;50.110;9.372;2023-05-01T14:19:17;16.205509759695268;;;16.125;78.49627094893114
15558;BME280;7880;50.110;9.372;2023-05-01T14:24:21;16.144998220191336;;;16.062;78.57042507201564
15558;BME280;7880;50.110;9.372;2023-05-01T14:29:28;16.306362418667412;;;16.187;76.34858654759039
15558;BME280;7880;50.110;9.372;2023-05-01T14:34:31;16.45259898095974;;;16.312;76.58011620927412
15558;BME280;7880;50.110;9.372;2023-05-01T14:39:42;16.845926121628146;;;16.625;76.6259450484887
15558;BME280;7880;50.110;9.372;2023-05-01T14:44:42;16.67951826909557;;;16.562;72.95121677862426
15558;BME280;7880;50.110;9.372;2023-05-01T14:49:50;16.366874069930056;;;16.437;69.73444325875691
15558;BME280;7880;50.110;9.372;2023-05-01T14:54:52;16.094571969285607;;;16.0;69.2019643755269
15558;BME280;7880;50.110;9.372;2023-05-01T14:59:56;16.392087270325284;;;16.312;71.57796848093118
15558;BME280;7880;50.110;9.372;2023-05-01T15:05:01;16.210552389879012;;;16.187;67.62994190650984
15558;BME280;7880;50.110;9.372;2023-05-01T15:10:07;16.215595020353796;;;16.125;70.61981036336446
15558;BME280;7880;50.110;9.372;2023-05-01T15:15:11;15.913037707004696;;;15.75;72.67574478036978
15558;BME280;7880;50.110;9.372;2023-05-01T15:20:15;15.822270717308857;;;15.687;71.54932713816102
15558;BME280;7880;50.110;9.372;2023-05-01T15:25:37;15.95842123721377;;;15.812;75.84372965685286
15558;BME280;7880;50.110;9.372;2023-05-01T15:30:43;16.104657217138445;;;15.937;70.40329995307664
15558;BME280;7880;50.110;9.372;2023-05-01T15:34:55;16.311405054671923;;;16.25;66.96378399023719
15558;BME280;7880;50.110;9.372;2023-05-01T15:39:57;16.694646242592718;;;16.625;72.78161872396547
15558;BME280;7880;50.110;9.372;2023-05-01T15:45:03;16.397129911277442;;;16.375;68.38013492604047
15558;BME280;7880;50.110;9.372;2023-05-01T15:50:12;16.15508347386494;;;16.062;69.52662000346503
15558;BME280;7880;50.110;9.372;2023-05-01T15:55:12;16.109699841501424;;;16.062;69.7580722095596
15558;BME280;7880;50.110;9.372;2023-05-01T16:00:16;15.776887257822091;;;15.75;68.49072363163846
15558;BME280;7880;50.110;9.372;2023-05-01T16:05:21;15.827313325373689;;;15.75;70.19033769969252
15558;BME280;7880;50.110;9.372;2023-05-01T16:10:27;15.938250776432687;;;15.812;73.79677266411915
15558;BME280;7880;50.110;9.372;2023-05-01T16:15:32;15.963463853136636;;;15.875;75.57260494686744
15558;BME280;7880;50.110;9.372;2023-05-01T16:20:40;15.96850646935054;;;15.875;73.84192192379327
15558;BME280;7880;50.110;9.372;2023-05-01T16:25:41;15.660907412902452;;;15.687;69.42617293152391
15558;BME280;7880;50.110;9.372;2023-05-01T16:30:47;15.585268466552952;;;15.562;72.63853609363184
15558;BME280;7880;50.110;9.372;2023-05-01T16:35:48;15.716376015177229;;;15.562;77.39724621866763
15558;BME280;7880;50.110;9.372;2023-05-01T16:40:56;15.83235593372956;;;15.75;74.48028303041416
15558;BME280;7880;50.110;9.372;2023-05-01T16:46:02;15.62056663336698;;;15.562;74.81353300730856
15558;BME280;7880;50.110;9.372;2023-05-01T16:51:05;15.610481441393494;;;15.562;72.35299230002967
15558;BME280;7880;50.110;9.372;2023-05-01T16:56:09;15.670992610696704;;;15.625;74.43460797404062
15558;BME280;7880;50.110;9.372;2023-05-01T17:01:13;15.489459228515624;;;15.437;76.27572924863841
15558;BME280;7880;50.110;9.372;2023-05-01T17:06:19;15.459203701489605;;;15.375;74.62940622679933
15558;BME280;7880;50.110;9.372;2023-05-01T17:11:24;15.444075941905613;;;15.312;76.24508571000032
15558;BME280;7880;50.110;9.372;2023-05-01T17:16:27;15.398692678869702;;;15.312;77.9155201570824
15558;BME280;7880;50.110;9.372;2023-05-01T17:21:32;15.378522347309627;;;15.25;78.67880786624256
15558;BME280;7880;50.110;9.372;2023-05-01T17:26:36;15.297841067635455;;;15.25;77.17812860797133
15558;BME280;7880;50.110;9.372;2023-05-01T17:31:39;15.23228758276091;;;15.125;77.54937865629357
15558;BME280;7880;50.110;9.372;2023-05-01T17:37:26;15.040669985912974;;;15.0;76.50122491062719
15558;BME280;7880;50.110;9.372;2023-05-01T17:42:28;14.929733674559975;;;14.812;78.15317573885514
15558;BME280;7880;50.110;9.372;2023-05-01T17:47:32;14.778457113361219;;;14.687;80.17607992043627
15558;BME280;7880;50.110;9.372;2023-05-01T17:52:36;14.758286924991989;;;14.625;82.00316889647897
15558;BME280;7880;50.110;9.372;2023-05-01T17:57:40;14.607010660652303;;;14.437;84.20691815312723
15558;BME280;7880;50.110;9.372;2023-05-01T18:02:45;14.455734658247092;;;14.25;94.77045225273181
15558;BME280;7880;50.110;9.372;2023-05-01T18:07:50;14.107800846756437;;;13.937;100.0
15558;BME280;7880;50.110;9.372;2023-05-01T18:12:55;14.04224825478741;;;13.75;100.0
15558;BME280;7880;50.110;9.372;2023-05-01T18:17:59;13.78003837876604;;;13.437;100.0
15558;BME280;7880;50.110;9.372;2023-05-01T18:23:16;13.316130525950575;;;13.062;100.0
15558;BME280;7880;50.110;9.372;2023-05-01T18:28:10;12.842140264069894;;;12.437;100.0
15558;BME280;7880;50.110;9.372;2023-05-01T18:33:17;13.003498362383107;;;12.5;100.0
15558;BME280;7880;50.110;9.372;2023-05-01T18:38:20;12.499255294684554;;;12.125;100.0
15558;BME280;7880;50.110;9.372;2023-05-01T18:43:21;12.312686097272671;;;11.875;100.0
15558;BME280;7880;50.110;9.372;2023-05-01T18:48:25;12.04543902213336;;;11.625;100.0
15558;BME280;7880;50.110;9.372;2023-05-01T18:53:30;12.050481412210502;;;11.5;100.0
15558;BME280;7880;50.110;9.372;2023-05-01T18:58:39;11.793319889350096;;;11.25;100.0
15558;BME280;7880;50.110;9.372;2023-05-01T19:03:41;11.460523748170818;;;10.937;100.0
15558;BME280;7880;50.110;9.372;2023-05-01T19:08:42;11.541201484162594;;;10.937;100.0
15558;BME280;7880;50.110;9.372;2023-05-01T19:13:53;11.722726662555942;;;11.062;100.0
15558;BME280;7880;50.110;9.372;2023-05-01T19:19:00;11.652133492805296;;;11.125;100.0
15558;BME280;7880;50.110;9.372;2023-05-01T19:23:58;11.51598968366161;;;10.875;100.0
15558;BME280;7880;50.110;9.372;2023-05-01T19:29:02;11.526074402988888;;;10.875;100.0
15558;BME280;7880;50.110;9.372;2023-05-01T19:34:06;11.692472439963604;;;11.125;100.0
15558;BME280;7880;50.110;9.372;2023-05-01T19:39:09;11.662218227848644;;;11.125;100.0
15558;BME280;7880;50.110;9.372;2023-05-01T19:44:16;11.606752199516631;;;11.062;100.0
15558;BME280;7880;50.110;9.372;2023-05-01T19:49:27;11.531116763089084;;;11.0;100.0
15558;BME280;7880;50.110;9.372;2023-05-01T19:54:35;11.64709112572018;;;11.187;100.0
15558;BME280;7880;50.110;9.372;2023-05-01T19:59:30;11.551286206400254;;;11.125;100.0
15558;BME280;7880;50.110;9.372;2023-05-01T20:04:36;11.551286206400254;;;11.062;100.0
15558;BME280;7880;50.110;9.372;2023-05-01T20:09:41;11.460523748170818;;;11.062;100.0
15558;BME280;7880;50.110;9.372;2023-05-01T20:14:45;11.384888438344934;;;11.0;100.0
15558;BME280;7880;50.110;9.372;2023-05-01T20:19:52;11.354634332749992;;;10.937;100.0
15558;BME280;7880;50.110;9.372;2023-05-01T20:24:54;11.36976138423779;;;10.875;100.0
15558;BME280;7880;50.110;9.372;2023-05-01T20:30:07;11.026882193709024;;;10.625;100.0
15558;BME280;7880;50.110;9.372;2023-05-01T20:35:09;10.870570068154484;;;10.312;100.0
15558;BME280;7880;50.110;9.372;2023-05-01T20:38:58;10.562988960329676;;;10.25;100.0
15558;BME280;7880;50.110;9.372;2023-05-01T20:44:04;10.628538941685111;;;10.125;100.0
15558;BME280;7880;50.110;9.372;2023-05-01T20:49:10;10.416762256086804;;;10.062;100.0
15558;BME280;7880;50.110;9.372;2023-05-01T20:54:12;10.60836971141398;;;10.187;100.0
15558;BME280;7880;50.110;9.372;2023-05-01T20:59:15;10.573073569644475;;;10.125;100.0
15558;BME280;7880;50.110;9.372;2023-05-01T21:04:19;10.34617014164105;;;9.812;100.0
15558;BME280;7880;50.110;9.372;2023-05-01T21:09:23;10.411719960306073;;;9.937;100.0
15558;BME280;7880;50.110;9.372;2023-05-01T21:14:28;10.230197506031255;;;9.875;100.0
15558;BME280;7880;50.110;9.372;2023-05-01T21:19:41;10.220112936297664;;;9.875;100.0
15558;BME280;7880;50.110;9.372;2023-05-01T21:24:41;10.104140468034894;;;9.812;100.0
15558;BME280;7880;50.110;9.372;2023-05-01T21:29:43;9.554533907823497;;;9.25;100.0
15558;BME280;7880;50.110;9.372;2023-05-01T21:34:45;9.791519798734225;;;9.312;100.0
15558;BME280;7880;50.110;9.372;2023-05-01T21:39:49;9.604956383962417;;;9.062;100.0
15558;BME280;7880;50.110;9.372;2023-05-01T21:44:54;9.347802059934475;;;8.937;100.0
15558;BME280;7880;50.110;9.372;2023-05-01T21:49:58;9.393182179756696;;;9.0;100.0
15558;BME280;7880;50.110;9.372;2023-05-01T21:55:10;9.322590892441804;;;8.937;100.0
15558;BME280;7880;50.110;9.372;2023-05-01T22:00:12;9.161239592783385;;;8.75;100.0
15558;BME280;7880;50.110;9.372;2023-05-01T22:05:13;8.909128783695632;;;8.5;100.0
15558;BME280;7880;50.110;9.372;2023-05-01T22:10:16;9.100732932245592;;;8.562;100.0
15558;BME280;7880;50.110;9.372;2023-05-01T22:15:21;9.030141881253803;;;8.687;100.0
15558;BME280;7880;50.110;9.372;2023-05-01T22:20:22;8.878875535499537;;;8.437;100.0
15558;BME280;7880;50.110;9.372;2023-05-01T22:25:26;9.100732932245592;;;8.687;100.0
15558;BME280;7880;50.110;9.372;2023-05-01T22:30:40;9.035184097290038;;;8.562;100.0
15558;BME280;7880;50.110;9.372;2023-05-01T22:35:35;8.818369070539484;;;8.312;100.0